createdAt,value
2019-02-18T00:00:19.205Z,59.05
2019-02-18T00:02:45.307Z,58.84
2019-02-18T00:05:11.431Z,58.25
2019-02-18T00:07:37.304Z,58.38
2019-02-18T00:10:05.198Z,58.49
2019-02-18T00:12:31.163Z,58.32
2019-02-18T00:14:57.120Z,58.29
2019-02-18T00:17:23.120Z,58.10
2019-02-18T00:19:48.985Z,58.72
2019-02-18T00:22:15.261Z,58.55
2019-02-18T00:24:41.289Z,58.35
2019-02-18T00:27:07.144Z,58.16
2019-02-18T00:29:33.022Z,58.28
2019-02-18T00:31:59.038Z,58.47
2019-02-18T00:34:24.920Z,58.61
2019-02-18T00:36:50.932Z,58.35
2019-02-18T00:39:16.921Z,57.33
2019-02-18T00:41:42.800Z,57.24
2019-02-18T00:44:08.794Z,57.50
2019-02-18T00:46:35.645Z,57.46
2019-02-18T00:49:01.631Z,57.62
2019-02-18T00:51:31.242Z,57.49
2019-02-18T00:53:57.305Z,57.57
2019-02-18T00:56:23.153Z,58.16
2019-02-18T00:58:49.076Z,58.36
2019-02-18T01:01:14.960Z,58.28
2019-02-18T01:03:41.040Z,58.11
2019-02-18T01:06:06.983Z,58.61
2019-02-18T01:08:32.966Z,58.50
2019-02-18T01:10:58.874Z,58.76
2019-02-18T01:13:24.878Z,58.82
2019-02-18T01:15:50.861Z,58.88
2019-02-18T01:18:16.959Z,58.64
2019-02-18T01:20:42.935Z,58.91
2019-02-18T01:23:08.803Z,59.16
2019-02-18T01:25:34.898Z,59.26
2019-02-18T01:28:01.020Z,59.11
2019-02-18T01:30:27.013Z,59.28
2019-02-18T01:32:52.931Z,59.08
2019-02-18T01:35:18.962Z,58.63
2019-02-18T01:37:46.265Z,59.02
2019-02-18T01:40:12.992Z,59.01
2019-02-18T01:42:39.074Z,58.81
2019-02-18T01:45:07.875Z,59.21
2019-02-18T01:47:34.025Z,59.21
2019-02-18T01:49:59.997Z,59.06
2019-02-18T01:52:25.977Z,59.32
2019-02-18T01:54:51.932Z,59.53
2019-02-18T01:57:17.782Z,59.65
2019-02-18T01:59:43.789Z,60.05
2019-02-18T02:02:09.727Z,59.74
2019-02-18T02:04:35.704Z,59.84
2019-02-18T02:07:01.563Z,59.74
2019-02-18T02:09:27.711Z,59.54
2019-02-18T02:11:53.696Z,59.71
2019-02-18T02:14:19.584Z,59.27
2019-02-18T02:16:45.598Z,60.09
2019-02-18T02:19:11.538Z,60.14
2019-02-18T02:21:37.491Z,59.62
2019-02-18T02:24:03.555Z,60.05
2019-02-18T02:26:29.569Z,60.30
2019-02-18T02:28:55.544Z,60.38
2019-02-18T02:31:21.468Z,60.38
2019-02-18T02:33:47.371Z,60.48
2019-02-18T02:36:13.266Z,60.75
2019-02-18T02:38:39.288Z,60.81
2019-02-18T02:41:05.255Z,60.43
2019-02-18T02:43:31.242Z,60.79
2019-02-18T02:45:57.192Z,60.38
2019-02-18T02:48:23.086Z,60.73
2019-02-18T02:50:48.965Z,60.73
2019-02-18T02:53:15.025Z,60.93
2019-02-18T02:55:40.894Z,60.78
2019-02-18T02:58:06.825Z,60.81
2019-02-18T03:00:32.793Z,60.37
2019-02-18T03:02:58.667Z,60.56
2019-02-18T03:05:24.591Z,60.73
2019-02-18T03:07:50.558Z,60.87
2019-02-18T03:10:16.544Z,60.67
2019-02-18T03:12:42.592Z,60.23
2019-02-18T03:15:14.630Z,60.17
2019-02-18T03:17:40.725Z,60.53
2019-02-18T03:20:07.822Z,60.73
2019-02-18T03:22:33.798Z,60.56
2019-02-18T03:25:14.745Z,61.06
2019-02-18T03:27:40.649Z,60.62
2019-02-18T03:30:13.408Z,60.19
2019-02-18T03:32:39.493Z,60.04
2019-02-18T03:35:05.367Z,60.50
2019-02-18T03:37:31.274Z,60.28
2019-02-18T03:39:57.136Z,60.38
2019-02-18T03:42:23.298Z,60.43
2019-02-18T03:44:49.269Z,60.62
2019-02-18T03:47:15.244Z,60.46
2019-02-18T03:49:41.170Z,60.65
2019-02-18T03:52:07.154Z,60.63
2019-02-18T03:54:37.239Z,60.44
2019-02-18T03:57:03.235Z,60.55
2019-02-18T03:59:29.223Z,60.65
2019-02-18T04:01:55.398Z,60.85
2019-02-18T04:04:21.524Z,61.09
2019-02-18T04:06:47.408Z,61.66
2019-02-18T04:09:13.331Z,61.24
2019-02-18T04:11:39.325Z,61.61
2019-02-18T04:14:05.212Z,61.39
2019-02-18T04:16:31.269Z,61.13
2019-02-18T04:18:57.359Z,60.99
2019-02-18T04:21:23.434Z,60.76
2019-02-18T04:23:49.442Z,60.55
2019-02-18T04:26:15.327Z,60.90
2019-02-18T04:28:43.803Z,60.91
2019-02-18T04:31:09.839Z,60.81
2019-02-18T04:33:36.019Z,61.12
2019-02-18T04:36:02.030Z,60.79
2019-02-18T04:38:27.920Z,60.56
2019-02-18T04:40:53.817Z,60.85
2019-02-18T04:43:19.868Z,60.96
2019-02-18T04:45:45.895Z,60.76
2019-02-18T04:48:11.972Z,60.81
2019-02-18T04:50:37.930Z,60.81
2019-02-18T04:53:03.907Z,60.95
2019-02-18T04:55:30.082Z,60.99
2019-02-18T04:57:55.999Z,60.64
2019-02-18T05:00:22.050Z,60.14
2019-02-18T05:02:48.010Z,60.49
2019-02-18T05:05:13.981Z,60.42
2019-02-18T05:07:39.843Z,61.10
2019-02-18T05:10:11.308Z,61.27
2019-02-18T05:12:37.393Z,60.76
2019-02-18T05:15:05.305Z,60.60
2019-02-18T05:17:31.198Z,60.20
2019-02-18T05:19:57.082Z,60.11
2019-02-18T05:22:23.127Z,60.37
2019-02-18T05:24:49.234Z,60.25
2019-02-18T05:27:15.240Z,60.46
2019-02-18T05:29:41.135Z,60.65
2019-02-18T05:32:07.099Z,60.65
2019-02-18T05:34:33.065Z,60.48
2019-02-18T05:36:59.051Z,60.50
2019-02-18T05:39:25.130Z,60.42
2019-02-18T05:41:51.076Z,60.16
2019-02-18T05:44:17.080Z,60.38
2019-02-18T05:46:43.244Z,60.63
2019-02-18T05:49:09.177Z,60.40
2019-02-18T05:51:35.241Z,60.40
2019-02-18T05:54:01.153Z,60.35
2019-02-18T05:56:31.238Z,60.35
2019-02-18T05:58:57.226Z,60.19
2019-02-18T06:01:23.288Z,59.87
2019-02-18T06:03:49.276Z,60.08
2019-02-18T06:06:15.196Z,60.08
2019-02-18T06:08:41.164Z,60.40
2019-02-18T06:11:07.125Z,60.57
2019-02-18T06:13:33.020Z,60.55
2019-02-18T06:15:59.000Z,60.77
2019-02-18T06:18:24.837Z,60.39
2019-02-18T06:20:50.797Z,60.22
2019-02-18T06:23:16.719Z,60.10
2019-02-18T06:25:42.706Z,60.27
2019-02-18T06:28:08.607Z,60.25
2019-02-18T06:30:34.537Z,60.39
2019-02-18T06:33:01.233Z,60.74
2019-02-18T06:35:27.342Z,60.84
2019-02-18T06:37:53.318Z,60.99
2019-02-18T06:40:19.172Z,60.85
2019-02-18T06:42:45.187Z,60.50
2019-02-18T06:45:24.997Z,60.23
2019-02-18T06:47:50.965Z,60.21
2019-02-18T06:50:18.734Z,60.13
2019-02-18T06:52:44.646Z,59.39
2019-02-18T06:55:10.695Z,58.23
2019-02-18T06:57:38.539Z,58.00
2019-02-18T07:00:08.921Z,58.03
2019-02-18T07:02:36.832Z,58.37
2019-02-18T07:05:07.893Z,58.47
2019-02-18T07:07:44.512Z,58.60
2019-02-18T07:10:21.405Z,58.65
2019-02-18T07:12:47.661Z,58.87
2019-02-18T07:15:13.554Z,58.51
2019-02-18T07:17:39.557Z,58.46
2019-02-18T07:20:06.635Z,58.42
2019-02-18T07:22:32.534Z,58.14
2019-02-18T07:24:58.509Z,58.18
2019-02-18T07:27:24.729Z,57.83
2019-02-18T07:29:50.613Z,57.07
2019-02-18T07:32:16.499Z,56.97
2019-02-18T07:34:42.499Z,56.55
2019-02-18T07:37:08.800Z,56.22
2019-02-18T07:39:34.828Z,55.72
2019-02-18T07:42:00.839Z,55.72
2019-02-18T07:44:26.738Z,55.07
2019-02-18T07:46:52.618Z,54.43
2019-02-18T07:49:18.507Z,54.31
2019-02-18T07:51:44.462Z,54.29
2019-02-18T07:54:10.474Z,53.85
2019-02-18T07:56:36.325Z,54.00
2019-02-18T07:59:02.360Z,54.00
2019-02-18T08:01:28.388Z,54.03
2019-02-18T08:03:54.361Z,53.63
2019-02-18T08:06:20.595Z,53.92
2019-02-18T08:08:46.588Z,53.59
2019-02-18T08:11:12.548Z,53.06
2019-02-18T08:13:38.504Z,52.06
2019-02-18T08:16:04.570Z,51.92
2019-02-18T08:18:30.566Z,52.73
2019-02-18T08:20:56.566Z,52.90
2019-02-18T08:23:22.461Z,53.18
2019-02-18T08:25:48.318Z,53.15
2019-02-18T08:28:14.254Z,52.79
2019-02-18T08:30:40.211Z,52.96
2019-02-18T08:33:06.115Z,52.80
2019-02-18T08:35:32.003Z,51.78
2019-02-18T08:37:57.884Z,51.88
2019-02-18T08:40:23.811Z,51.04
2019-02-18T08:42:49.824Z,50.77
2019-02-18T08:45:15.795Z,50.66
2019-02-18T08:47:41.934Z,50.58
2019-02-18T08:50:10.017Z,49.83
2019-02-18T08:52:35.983Z,49.67
2019-02-18T08:55:02.039Z,49.45
2019-02-18T08:57:27.932Z,48.97
2019-02-18T08:59:56.997Z,48.76
2019-02-18T09:02:22.872Z,48.13
2019-02-18T09:04:48.917Z,48.28
2019-02-18T09:07:14.800Z,48.06
2019-02-18T09:09:40.665Z,47.46
2019-02-18T09:12:06.632Z,46.35
2019-02-18T09:14:32.758Z,45.77
2019-02-18T09:16:58.872Z,45.11
2019-02-18T09:19:24.750Z,44.10
2019-02-18T09:21:52.541Z,43.82
2019-02-18T09:24:22.313Z,44.42
2019-02-18T09:26:48.261Z,43.33
2019-02-18T09:29:14.241Z,43.64
2019-02-18T09:31:42.622Z,44.00
2019-02-18T09:34:07.939Z,43.81
2019-02-18T09:36:34.002Z,43.08
2019-02-18T09:39:00.000Z,42.47
2019-02-18T09:41:26.084Z,41.55
2019-02-18T09:43:52.028Z,41.43
2019-02-18T09:46:22.152Z,39.71
2019-02-18T09:48:48.416Z,40.79
2019-02-18T09:51:14.399Z,40.96
2019-02-18T09:53:40.356Z,41.39
2019-02-18T09:56:06.403Z,42.13
2019-02-18T09:58:32.419Z,42.54
2019-02-18T10:00:58.324Z,42.55
2019-02-18T10:03:31.477Z,43.04
2019-02-18T10:05:52.445Z,43.40
2019-02-18T10:08:18.414Z,43.87
2019-02-18T10:10:55.077Z,43.68
2019-02-18T10:13:12.458Z,43.79
2019-02-18T10:15:38.429Z,43.38
2019-02-18T10:18:04.459Z,43.61
2019-02-18T10:20:30.363Z,43.60
2019-02-18T10:22:56.346Z,43.85
2019-02-18T10:25:22.361Z,43.37
2019-02-18T10:27:48.426Z,43.49
2019-02-18T10:30:14.345Z,44.06
2019-02-18T10:32:40.387Z,44.06
2019-02-18T10:35:09.310Z,43.19
2019-02-18T10:37:35.184Z,42.32
2019-02-18T10:40:01.442Z,42.40
2019-02-18T10:42:27.498Z,44.44
2019-02-18T10:44:53.502Z,44.98
2019-02-18T10:47:19.401Z,45.74
2019-02-18T10:49:45.482Z,45.62
2019-02-18T10:52:11.503Z,44.54
2019-02-18T10:54:37.777Z,44.62
2019-02-18T10:57:03.761Z,45.52
2019-02-18T10:59:29.705Z,45.64
2019-02-18T11:01:55.831Z,44.71
2019-02-18T11:04:21.882Z,44.71
2019-02-18T11:06:47.954Z,45.66
2019-02-18T11:09:14.020Z,44.64
2019-02-18T11:11:40.002Z,45.72
2019-02-18T11:14:06.194Z,46.17
2019-02-18T11:16:32.590Z,46.03
2019-02-18T11:18:58.634Z,46.09
2019-02-18T11:21:24.595Z,46.55
2019-02-18T11:23:50.590Z,46.67
2019-02-18T11:26:16.515Z,46.27
2019-02-18T11:28:42.536Z,46.26
2019-02-18T11:31:08.629Z,46.20
2019-02-18T11:33:34.520Z,46.47
2019-02-18T11:36:00.707Z,46.42
2019-02-18T11:38:26.584Z,46.34
2019-02-18T11:40:52.494Z,46.20
2019-02-18T11:43:18.382Z,45.98
2019-02-18T11:45:44.367Z,45.77
2019-02-18T11:48:10.465Z,46.09
2019-02-18T11:50:36.515Z,46.12
2019-02-18T11:53:02.614Z,46.01
2019-02-18T11:55:28.526Z,45.64
2019-02-18T11:57:54.416Z,45.20
2019-02-18T12:00:20.445Z,45.12
2019-02-18T12:02:46.399Z,45.35
2019-02-18T12:05:12.540Z,45.41
2019-02-18T12:07:38.686Z,45.30
2019-02-18T12:10:08.075Z,44.89
2019-02-18T12:12:34.180Z,44.90
2019-02-18T12:15:00.587Z,45.02
2019-02-18T12:17:26.555Z,44.38
2019-02-18T12:19:52.421Z,34.41
2019-02-18T12:22:18.525Z,29.63
2019-02-18T12:24:44.513Z,31.43
2019-02-18T12:27:10.540Z,32.72
2019-02-18T12:29:36.552Z,34.53
2019-02-18T12:32:02.539Z,39.39
2019-02-18T12:34:28.595Z,41.14
2019-02-18T12:36:54.590Z,40.25
2019-02-18T12:39:22.671Z,40.24
2019-02-18T12:41:49.163Z,35.49
2019-02-18T12:44:15.377Z,34.76
2019-02-18T12:46:41.370Z,30.25
2019-02-18T12:49:07.368Z,30.25
2019-02-18T12:51:33.393Z,26.64
2019-02-18T12:54:05.070Z,31.29
2019-02-18T12:56:27.721Z,33.64
2019-02-18T12:58:54.833Z,26.24
2019-02-18T13:01:22.041Z,24.70
2019-02-18T13:03:48.002Z,22.70
2019-02-18T13:06:14.211Z,23.43
2019-02-18T13:08:40.137Z,24.72
2019-02-18T13:11:06.093Z,23.34
2019-02-18T13:13:32.100Z,19.26
2019-02-18T13:15:58.217Z,18.66
2019-02-18T13:18:24.124Z,19.83
2019-02-18T13:20:50.396Z,20.86
2019-02-18T13:23:16.562Z,17.73
2019-02-18T13:25:47.462Z,20.53
2019-02-18T13:28:10.444Z,20.26
2019-02-18T13:30:36.445Z,20.26
2019-02-18T13:33:02.470Z,20.14
2019-02-18T13:35:28.535Z,19.05
2019-02-18T13:37:54.613Z,20.91
2019-02-18T13:40:20.664Z,19.28
2019-02-18T13:42:46.650Z,20.68
2019-02-18T13:45:12.825Z,19.52
2019-02-18T13:47:38.967Z,17.50
2019-02-18T13:50:07.988Z,18.29
2019-02-18T13:52:34.003Z,21.12
2019-02-18T13:55:01.605Z,18.47
2019-02-18T13:57:28.118Z,17.49
2019-02-18T13:59:54.546Z,15.20
2019-02-18T14:02:20.545Z,19.85
2019-02-18T14:04:50.244Z,20.43
2019-02-18T14:07:16.382Z,18.25
2019-02-18T14:09:42.533Z,17.85
2019-02-18T14:12:15.966Z,19.43
2019-02-18T14:14:36.644Z,17.56
2019-02-18T14:17:02.704Z,19.94
2019-02-18T14:19:28.895Z,19.63
2019-02-18T14:21:55.053Z,20.25
2019-02-18T14:24:21.054Z,20.00
2019-02-18T14:26:47.170Z,19.84
2019-02-18T14:29:13.212Z,17.96
2019-02-18T14:31:39.071Z,19.54
2019-02-18T14:34:04.952Z,18.28
2019-02-18T14:36:30.928Z,21.20
2019-02-18T14:38:57.305Z,19.26
2019-02-18T14:41:23.531Z,18.60
2019-02-18T14:43:49.531Z,18.60
2019-02-18T14:46:15.479Z,18.19
2019-02-18T14:48:41.598Z,19.74
2019-02-18T14:51:07.689Z,22.22
2019-02-18T14:53:33.693Z,24.17
2019-02-18T14:55:59.613Z,23.53
2019-02-18T14:58:25.680Z,23.11
2019-02-18T15:00:51.763Z,21.44
2019-02-18T15:03:17.708Z,24.11
2019-02-18T15:05:43.967Z,23.04
2019-02-18T15:08:09.854Z,20.58
2019-02-18T15:10:35.870Z,21.34
2019-02-18T15:13:01.778Z,21.36
2019-02-18T15:15:27.737Z,22.58
2019-02-18T15:17:54.007Z,19.97
2019-02-18T15:20:20.344Z,20.92
2019-02-18T15:22:46.280Z,20.01
2019-02-18T15:25:12.484Z,22.04
2019-02-18T15:27:38.434Z,22.87
2019-02-18T15:30:08.066Z,22.70
2019-02-18T15:32:34.037Z,23.54
2019-02-18T15:35:00.024Z,25.85
2019-02-18T15:37:26.060Z,30.35
2019-02-18T15:39:52.324Z,34.39
2019-02-18T15:42:18.210Z,37.77
2019-02-18T15:44:44.221Z,37.78
2019-02-18T15:47:10.190Z,37.78
2019-02-18T15:49:36.314Z,38.76
2019-02-18T15:52:02.310Z,39.15
2019-02-18T15:54:28.515Z,40.05
2019-02-18T15:56:54.648Z,40.34
2019-02-18T15:59:20.910Z,40.39
2019-02-18T16:01:46.893Z,41.36
2019-02-18T16:04:13.085Z,41.74
2019-02-18T16:06:42.210Z,42.22
2019-02-18T16:09:08.208Z,42.39
2019-02-18T16:11:34.297Z,42.82
2019-02-18T16:14:00.163Z,43.17
2019-02-18T16:16:26.156Z,43.43
2019-02-18T16:18:52.725Z,43.40
2019-02-18T16:21:18.728Z,43.47
2019-02-18T16:23:44.740Z,43.70
2019-02-18T16:26:10.586Z,44.07
2019-02-18T16:28:36.521Z,44.18
2019-02-18T16:31:02.702Z,44.30
2019-02-18T16:33:28.728Z,44.90
2019-02-18T16:35:54.721Z,44.93
2019-02-18T16:38:20.844Z,45.52
2019-02-18T16:40:46.966Z,45.98
2019-02-18T16:43:13.029Z,46.19
2019-02-18T16:45:39.083Z,46.85
2019-02-18T16:48:05.342Z,47.09
2019-02-18T16:50:31.412Z,47.06
2019-02-18T16:52:57.379Z,48.12
2019-02-18T16:55:23.231Z,48.00
2019-02-18T16:57:49.539Z,49.76
2019-02-18T17:00:21.164Z,48.99
2019-02-18T17:02:47.166Z,49.15
2019-02-18T17:05:13.204Z,50.10
2019-02-18T17:07:39.105Z,50.26
2019-02-18T17:10:06.659Z,51.78
2019-02-18T17:12:32.606Z,51.46
2019-02-18T17:14:58.477Z,52.53
2019-02-18T17:17:24.672Z,52.37
2019-02-18T17:19:50.587Z,51.86
2019-02-18T17:22:16.587Z,52.85
2019-02-18T17:24:42.558Z,52.74
2019-02-18T17:27:08.478Z,52.73
2019-02-18T17:29:34.402Z,53.45
2019-02-18T17:32:00.447Z,53.10
2019-02-18T17:34:26.314Z,54.88
2019-02-18T17:36:52.587Z,55.60
2019-02-18T17:39:18.715Z,54.86
2019-02-18T17:41:44.812Z,56.24
2019-02-18T17:44:10.883Z,55.90
2019-02-18T17:46:36.898Z,55.10
2019-02-18T17:49:02.989Z,55.42
2019-02-18T17:51:28.996Z,55.78
2019-02-18T17:53:54.843Z,55.77
2019-02-18T17:56:23.142Z,55.77
2019-02-18T17:58:49.585Z,55.84
2019-02-18T18:01:15.731Z,56.69
2019-02-18T18:03:41.598Z,57.10
2019-02-18T18:06:07.751Z,56.91
2019-02-18T18:08:33.837Z,56.62
2019-02-18T18:11:00.034Z,56.86
2019-02-18T18:13:26.050Z,57.65
2019-02-18T18:15:52.020Z,57.19
2019-02-18T18:18:23.938Z,57.58
2019-02-18T18:20:51.773Z,57.53
2019-02-18T18:23:18.410Z,56.68
2019-02-18T18:25:44.413Z,57.39
2019-02-18T18:28:10.435Z,57.68
2019-02-18T18:30:36.431Z,57.64
2019-02-18T18:33:02.944Z,57.44
2019-02-18T18:35:29.149Z,58.59
2019-02-18T18:37:55.261Z,57.93
2019-02-18T18:40:21.289Z,58.11
2019-02-18T18:42:47.256Z,57.99
2019-02-18T18:45:15.733Z,57.55
2019-02-18T18:47:42.108Z,57.58
2019-02-18T18:50:10.916Z,57.28
2019-02-18T18:52:36.943Z,57.43
2019-02-18T18:55:04.519Z,57.38
2019-02-18T18:57:30.480Z,57.25
2019-02-18T18:59:56.441Z,57.65
2019-02-18T19:02:22.484Z,57.58
2019-02-18T19:04:48.362Z,57.84
2019-02-18T19:07:14.344Z,57.71
2019-02-18T19:09:40.374Z,57.35
2019-02-18T19:12:10.387Z,57.41
2019-02-18T19:14:36.379Z,57.79
2019-02-18T19:17:02.512Z,57.52
2019-02-18T19:19:28.480Z,57.73
2019-02-18T19:21:54.492Z,57.64
2019-02-18T19:24:22.846Z,58.42
2019-02-18T19:26:49.072Z,59.02
2019-02-18T19:29:15.883Z,58.76
2019-02-18T19:31:41.955Z,58.39
2019-02-18T19:34:07.967Z,58.32
2019-02-18T19:36:34.007Z,58.23
2019-02-18T19:38:59.977Z,58.75
2019-02-18T19:41:25.933Z,58.59
2019-02-18T19:43:51.817Z,58.57
2019-02-18T19:46:17.888Z,58.46
2019-02-18T19:48:43.892Z,58.54
2019-02-18T19:51:10.093Z,58.35
2019-02-18T19:53:36.157Z,58.80
2019-02-18T19:56:02.249Z,59.03
2019-02-18T19:58:28.126Z,58.70
2019-02-18T20:00:54.223Z,58.65
2019-02-18T20:03:20.427Z,58.96
2019-02-18T20:05:46.649Z,59.02
2019-02-18T20:08:13.029Z,58.55
2019-02-18T20:10:39.124Z,58.56
2019-02-18T20:13:09.346Z,58.62
2019-02-18T20:15:35.427Z,58.61
2019-02-18T20:18:01.360Z,58.56
2019-02-18T20:20:27.444Z,59.15
2019-02-18T20:22:53.900Z,59.18
2019-02-18T20:25:19.936Z,59.39
2019-02-18T20:27:46.049Z,59.17
2019-02-18T20:30:16.376Z,59.09
2019-02-18T20:32:42.400Z,59.35
2019-02-18T20:35:09.446Z,59.11
2019-02-18T20:37:35.446Z,59.41
2019-02-18T20:40:01.475Z,59.21
2019-02-18T20:42:27.823Z,59.34
2019-02-18T20:44:54.623Z,58.99
2019-02-18T20:47:21.567Z,59.26
2019-02-18T20:49:48.936Z,58.87
2019-02-18T20:52:16.406Z,58.65
2019-02-18T20:54:44.042Z,58.78
2019-02-18T20:57:11.358Z,58.84
2019-02-18T20:59:38.869Z,58.72
2019-02-18T21:02:06.889Z,58.78
2019-02-18T21:04:34.614Z,58.96
2019-02-18T21:07:04.741Z,59.09
2019-02-18T21:09:33.191Z,59.21
2019-02-18T21:12:01.075Z,59.40
2019-02-18T21:14:30.426Z,59.44
2019-02-18T21:16:58.317Z,59.46
2019-02-18T21:19:26.842Z,59.68
2019-02-18T21:21:54.653Z,59.97
2019-02-18T21:24:22.959Z,60.20
2019-02-18T21:26:50.046Z,59.94
2019-02-18T21:29:17.383Z,60.33
2019-02-18T21:31:43.989Z,60.44
2019-02-18T21:34:10.604Z,60.22
2019-02-18T21:36:36.869Z,61.04
2019-02-18T21:39:07.222Z,61.04
2019-02-18T21:41:41.056Z,61.16
2019-02-18T21:44:07.174Z,60.80
2019-02-18T21:46:33.316Z,61.38
2019-02-18T21:48:59.289Z,60.76
2019-02-18T21:51:25.951Z,60.83
2019-02-18T21:53:51.885Z,61.15
2019-02-18T21:56:17.966Z,60.79
2019-02-18T21:58:44.129Z,61.04
2019-02-18T22:01:10.131Z,60.79
2019-02-18T22:03:36.199Z,60.73
2019-02-18T22:06:04.725Z,60.75
2019-02-18T22:08:30.868Z,60.97
2019-02-18T22:10:57.377Z,61.09
2019-02-18T22:13:23.254Z,61.16
2019-02-18T22:15:49.363Z,61.67
2019-02-18T22:18:15.241Z,61.72
2019-02-18T22:20:41.352Z,61.35
2019-02-18T22:23:07.506Z,61.49
2019-02-18T22:25:33.357Z,61.88
2019-02-18T22:27:59.403Z,62.22
2019-02-18T22:30:25.530Z,62.66
2019-02-18T22:32:51.832Z,62.79
2019-02-18T22:35:17.984Z,62.74
2019-02-18T22:37:44.124Z,62.31
2019-02-18T22:40:11.461Z,62.47
2019-02-18T22:42:37.673Z,62.77
2019-02-18T22:45:04.763Z,62.39
2019-02-18T22:47:30.813Z,62.27
2019-02-18T22:49:57.060Z,62.12
2019-02-18T22:52:22.948Z,62.21
2019-02-18T22:54:49.517Z,62.12
2019-02-18T22:57:15.604Z,62.10
2019-02-18T22:59:41.688Z,62.19
2019-02-18T23:02:08.636Z,62.64
2019-02-18T23:04:34.531Z,63.18
2019-02-18T23:07:00.588Z,63.20
2019-02-18T23:09:26.447Z,63.68
2019-02-18T23:11:52.351Z,63.50
2019-02-18T23:14:18.350Z,63.34
2019-02-18T23:16:44.884Z,63.00
2019-02-18T23:19:10.863Z,62.84
2019-02-18T23:21:36.735Z,63.06
2019-02-18T23:24:02.655Z,63.88
2019-02-18T23:26:28.686Z,63.91
2019-02-18T23:28:54.577Z,63.81
2019-02-18T23:31:20.443Z,63.85
2019-02-18T23:33:46.332Z,63.89
2019-02-18T23:36:12.426Z,64.09
2019-02-18T23:38:38.441Z,63.88
2019-02-18T23:41:04.414Z,63.68
2019-02-18T23:43:30.476Z,63.82
2019-02-18T23:45:56.593Z,64.32
2019-02-18T23:48:22.470Z,64.59
2019-02-18T23:50:48.463Z,64.21
2019-02-18T23:53:16.491Z,64.66
2019-02-18T23:55:42.797Z,64.52
2019-02-18T23:58:08.805Z,65.02
